WetterOnline ( http://www.wetteronline.de )

Wetter aktuell Lüneburg

Aktuelles Wetter: Boizenburg (46m)

6-stündlich | Neueste Meldungen
Ortszeit Temperatur Wetter
Mi, 26.04. 14:00 9.0° C wolkig
Mi, 26.04. 8:00 2.3° C fast wolkenlos
Mi, 26.04. 2:00 2.2° C wolkenlos
Di, 25.04. 20:00 6.8° C wolkenlos
Ortszeit Temperatur Wetter
Mi, 26.04. 17:30 8.4° C wolkig
Mi, 26.04. 17:00 6.2° C leichter Regen
Mi, 26.04. 16:30 9.1° C bewölkt
Mi, 26.04. 16:00 9.7° C bewölkt
Mi, 26.04. 15:30 10.2° C leicht bewölkt
Mi, 26.04. 15:00 9.7° C bewölkt
Ortszeit Relative Feuchte Sichtweite
Mi, 26.04. 14:00 58% 50 km
Mi, 26.04. 8:00 88% 12 km
Mi, 26.04. 2:00 82% 45 km
Di, 25.04. 20:00 54% 70 km
Ortszeit Relative Feuchte Sichtweite
Mi, 26.04. 17:30 57% 45 km
Mi, 26.04. 17:00 63% 7 km
Mi, 26.04. 16:30 58% 70 km
Mi, 26.04. 16:00 46% 30 km
Mi, 26.04. 15:30 49% 30 km
Mi, 26.04. 15:00 55% 60 km
Ortszeit Niederschlagsmenge Niederschlagsart
Mi, 26.04. 14:00 0,0 l/m2 in 6 Std. -
Mi, 26.04. 8:00 0,0 l/m2 in 12 Std. -
Mi, 26.04. 2:00 0,0 l/m2 in 6 Std. -
Di, 25.04. 20:00 0.6 l/m2 in 12 Std. Regen
Ortszeit Niederschlagsmenge Niederschlagsart
Mi, 26.04. 17:30 keine Meldung -
Mi, 26.04. 17:00 0.05 l/m2 in 1 Std. Regen
Mi, 26.04. 16:30 keine Meldung -
Mi, 26.04. 16:00 0,0 l/m2 in 1 Std. -
Mi, 26.04. 15:30 keine Meldung -
Mi, 26.04. 15:00 0,0 l/m2 in 1 Std. -
Ortszeit Stärke Spitze Richtung
km/h Bft. km/h Grad Sektor
Mi, 26.04. 14:00 11 2 29 300° NW
Mi, 26.04. 8:00 9 2 20 250° W
Mi, 26.04. 2:00 11 2 28 230° SW
Di, 25.04. 20:00 13 3 48 270° W
Ortszeit Stärke Spitze Richtung
km/h Bft. km/h Grad Sektor
Mi, 26.04. 17:30 6 1 11 20° N
Mi, 26.04. 17:00 26 4 46 250° W
Mi, 26.04. 16:30 11 2 32 310° NW
Mi, 26.04. 16:00 11 2 24 270° W
Mi, 26.04. 15:30 11 2 22 290° W
Mi, 26.04. 15:00 13 3 26 320° NW
Ortszeit Untergrenze Bedeckung Gattung
total tief tief mittel hoch
Mi, 26.04. 14:00 1800 m 6/8 6/8 - - -
Mi, 26.04. 8:00 5100 m 1/8 1/8 - - -
Mi, 26.04. 2:00 - 0/8 0/8 - - -
Di, 25.04. 20:00 - 0/8 0/8 - - -
Ortszeit Bedeckungsgrad in Achtel und Wolkenuntergrenze
Mi, 26.04. 17:30 1(1200m) 5(2700m) 6(3900m)
Mi, 26.04. 17:00 1(360m) 6(1440m) 7(1800m)
Mi, 26.04. 16:30 3(1500m) 4(1800m) 7(2400m)
Mi, 26.04. 16:00 7(2100m) 7(2700m)
Mi, 26.04. 15:30 2(2100m) 4(2400m)
Mi, 26.04. 15:00 3(1500m) 7(2400m)
Ortszeit Luftdruck NN (hPa) Tendenz (hPa in 3 Std.)
Mi, 26.04. 14:00 1012 + 0,4
Mi, 26.04. 8:00 1010 + 0,9
Mi, 26.04. 2:00 1009 + 0,2
Di, 25.04. 20:00 1007 + 1,4
Ortszeit Luftdruck NN (hPa) Tendenz (hPa in 3 Std.)
Mi, 26.04. 17:30 1012 + 0,6
Mi, 26.04. 17:00 1012 + 0,9
Mi, 26.04. 16:30 1012 + 0,3
Mi, 26.04. 16:00 1012 + 0,3
Mi, 26.04. 15:30 1011 + 0,2
Mi, 26.04. 15:00 1011 + 0,2
Ortszeit Schneehöhe (cm)
Mi, 26.04. 14:00 -
Mi, 26.04. 8:00 -
Mi, 26.04. 2:00 -
Di, 25.04. 20:00 -
Ortszeit Schneehöhe (cm)
Mi, 26.04. 17:30 -
Mi, 26.04. 17:00 -
Mi, 26.04. 16:30 -
Mi, 26.04. 16:00 -
Mi, 26.04. 15:30 -
Mi, 26.04. 15:00 -
Link zu dieser Seite / Seite empfehlen

Das Wetter in ...